sensor_id;sensor_type;location;lat;lon;timestamp;P1;durP1;ratioP1;P2;durP2;ratioP2
13816;SDS011;6979;52.116;5.286;2023-04-25T00:00:26;7.03;;;3.63;;
13816;SDS011;6979;52.116;5.286;2023-04-25T00:02:53;9.07;;;3.63;;
13816;SDS011;6979;52.116;5.286;2023-04-25T00:05:21;10.47;;;3.70;;
13816;SDS011;6979;52.116;5.286;2023-04-25T00:07:48;12.17;;;3.73;;
13816;SDS011;6979;52.116;5.286;2023-04-25T00:10:15;7.27;;;3.33;;
13816;SDS011;6979;52.116;5.286;2023-04-25T00:12:43;6.90;;;4.23;;
13816;SDS011;6979;52.116;5.286;2023-04-25T00:15:11;9.53;;;4.80;;
13816;SDS011;6979;52.116;5.286;2023-04-25T00:17:38;5.50;;;3.50;;
13816;SDS011;6979;52.116;5.286;2023-04-25T00:20:05;10.23;;;4.17;;
13816;SDS011;6979;52.116;5.286;2023-04-25T00:22:34;11.40;;;4.60;;
13816;SDS011;6979;52.116;5.286;2023-04-25T00:25:02;8.33;;;3.33;;
13816;SDS011;6979;52.116;5.286;2023-04-25T00:27:29;6.17;;;3.23;;
13816;SDS011;6979;52.116;5.286;2023-04-25T00:29:58;7.67;;;3.60;;
13816;SDS011;6979;52.116;5.286;2023-04-25T00:32:25;6.10;;;3.50;;
13816;SDS011;6979;52.116;5.286;2023-04-25T00:34:51;8.40;;;3.60;;
13816;SDS011;6979;52.116;5.286;2023-04-25T00:37:20;5.33;;;3.83;;
13816;SDS011;6979;52.116;5.286;2023-04-25T00:39:47;5.33;;;3.43;;
13816;SDS011;6979;52.116;5.286;2023-04-25T00:42:14;9.10;;;3.40;;
13816;SDS011;6979;52.116;5.286;2023-04-25T00:44:42;9.60;;;3.70;;
13816;SDS011;6979;52.116;5.286;2023-04-25T00:47:10;6.50;;;4.20;;
13816;SDS011;6979;52.116;5.286;2023-04-25T00:49:37;8.03;;;3.70;;
13816;SDS011;6979;52.116;5.286;2023-04-25T00:52:04;4.10;;;2.90;;
13816;SDS011;6979;52.116;5.286;2023-04-25T00:54:32;7.20;;;3.60;;
13816;SDS011;6979;52.116;5.286;2023-04-25T00:56:58;7.53;;;3.43;;
13816;SDS011;6979;52.116;5.286;2023-04-25T00:59:26;9.37;;;3.60;;
13816;SDS011;6979;52.116;5.286;2023-04-25T01:01:54;7.60;;;3.27;;
13816;SDS011;6979;52.116;5.286;2023-04-25T01:04:24;8.43;;;3.63;;
13816;SDS011;6979;52.116;5.286;2023-04-25T01:06:55;6.93;;;3.67;;
13816;SDS011;6979;52.116;5.286;2023-04-25T01:09:22;8.43;;;4.43;;
13816;SDS011;6979;52.116;5.286;2023-04-25T01:11:50;6.50;;;2.83;;
13816;SDS011;6979;52.116;5.286;2023-04-25T01:14:17;6.57;;;3.60;;
13816;SDS011;6979;52.116;5.286;2023-04-25T01:16:44;5.73;;;3.10;;
13816;SDS011;6979;52.116;5.286;2023-04-25T01:19:11;6.13;;;3.80;;
13816;SDS011;6979;52.116;5.286;2023-04-25T01:21:46;4.37;;;3.13;;
13816;SDS011;6979;52.116;5.286;2023-04-25T01:24:14;5.40;;;3.33;;
13816;SDS011;6979;52.116;5.286;2023-04-25T01:26:41;9.27;;;3.53;;
13816;SDS011;6979;52.116;5.286;2023-04-25T01:29:14;6.27;;;3.10;;
13816;SDS011;6979;52.116;5.286;2023-04-25T01:31:41;5.60;;;3.27;;
13816;SDS011;6979;52.116;5.286;2023-04-25T01:34:09;7.63;;;3.53;;
13816;SDS011;6979;52.116;5.286;2023-04-25T01:36:36;5.30;;;3.40;;
13816;SDS011;6979;52.116;5.286;2023-04-25T01:39:04;7.17;;;3.60;;
13816;SDS011;6979;52.116;5.286;2023-04-25T01:41:31;6.63;;;3.37;;
13816;SDS011;6979;52.116;5.286;2023-04-25T01:43:59;4.90;;;3.03;;
13816;SDS011;6979;52.116;5.286;2023-04-25T01:46:27;5.83;;;3.03;;
13816;SDS011;6979;52.116;5.286;2023-04-25T01:48:54;8.07;;;3.70;;
13816;SDS011;6979;52.116;5.286;2023-04-25T01:51:21;6.73;;;3.30;;
13816;SDS011;6979;52.116;5.286;2023-04-25T01:53:49;5.20;;;3.43;;
13816;SDS011;6979;52.116;5.286;2023-04-25T01:56:18;7.37;;;3.77;;
13816;SDS011;6979;52.116;5.286;2023-04-25T01:58:45;5.73;;;3.10;;
13816;SDS011;6979;52.116;5.286;2023-04-25T02:01:18;4.63;;;3.37;;
13816;SDS011;6979;52.116;5.286;2023-04-25T02:03:58;6.17;;;3.60;;
13816;SDS011;6979;52.116;5.286;2023-04-25T02:06:31;6.57;;;3.43;;
13816;SDS011;6979;52.116;5.286;2023-04-25T02:08:58;7.03;;;2.93;;
13816;SDS011;6979;52.116;5.286;2023-04-25T02:11:27;6.00;;;3.43;;
13816;SDS011;6979;52.116;5.286;2023-04-25T02:14:23;5.53;;;3.63;;
13816;SDS011;6979;52.116;5.286;2023-04-25T02:17:10;5.13;;;3.23;;
13816;SDS011;6979;52.116;5.286;2023-04-25T02:19:37;11.77;;;4.03;;
13816;SDS011;6979;52.116;5.286;2023-04-25T02:22:06;6.33;;;3.63;;
13816;SDS011;6979;52.116;5.286;2023-04-25T02:24:33;6.23;;;3.40;;
13816;SDS011;6979;52.116;5.286;2023-04-25T02:27:01;4.97;;;3.20;;
13816;SDS011;6979;52.116;5.286;2023-04-25T02:29:31;5.50;;;3.23;;
13816;SDS011;6979;52.116;5.286;2023-04-25T02:31:57;4.43;;;2.80;;
13816;SDS011;6979;52.116;5.286;2023-04-25T02:34:25;8.00;;;4.23;;
13816;SDS011;6979;52.116;5.286;2023-04-25T02:36:52;6.33;;;3.77;;
13816;SDS011;6979;52.116;5.286;2023-04-25T02:39:18;7.53;;;3.57;;
13816;SDS011;6979;52.116;5.286;2023-04-25T02:41:47;8.30;;;3.63;;
13816;SDS011;6979;52.116;5.286;2023-04-25T02:44:15;9.13;;;4.77;;
13816;SDS011;6979;52.116;5.286;2023-04-25T02:46:44;7.60;;;4.20;;
13816;SDS011;6979;52.116;5.286;2023-04-25T02:49:10;6.07;;;3.53;;
13816;SDS011;6979;52.116;5.286;2023-04-25T02:51:37;5.27;;;3.80;;
13816;SDS011;6979;52.116;5.286;2023-04-25T02:54:04;4.40;;;3.40;;
13816;SDS011;6979;52.116;5.286;2023-04-25T02:56:35;9.30;;;3.83;;
13816;SDS011;6979;52.116;5.286;2023-04-25T02:59:05;6.07;;;3.50;;
13816;SDS011;6979;52.116;5.286;2023-04-25T03:01:33;7.20;;;3.50;;
13816;SDS011;6979;52.116;5.286;2023-04-25T03:04:00;8.93;;;4.30;;
13816;SDS011;6979;52.116;5.286;2023-04-25T03:06:27;7.33;;;3.50;;
13816;SDS011;6979;52.116;5.286;2023-04-25T03:08:53;6.70;;;3.07;;
13816;SDS011;6979;52.116;5.286;2023-04-25T03:11:20;7.07;;;3.57;;
13816;SDS011;6979;52.116;5.286;2023-04-25T03:13:47;7.43;;;4.20;;
13816;SDS011;6979;52.116;5.286;2023-04-25T03:16:14;7.30;;;4.43;;
13816;SDS011;6979;52.116;5.286;2023-04-25T03:18:43;7.03;;;3.63;;
13816;SDS011;6979;52.116;5.286;2023-04-25T03:21:09;5.97;;;3.97;;
13816;SDS011;6979;52.116;5.286;2023-04-25T03:23:36;8.30;;;4.00;;
13816;SDS011;6979;52.116;5.286;2023-04-25T03:26:03;8.73;;;4.07;;
13816;SDS011;6979;52.116;5.286;2023-04-25T03:28:30;4.93;;;3.27;;
13816;SDS011;6979;52.116;5.286;2023-04-25T03:30:57;4.50;;;3.10;;
13816;SDS011;6979;52.116;5.286;2023-04-25T03:33:26;5.87;;;3.33;;
13816;SDS011;6979;52.116;5.286;2023-04-25T03:35:57;5.10;;;3.53;;
13816;SDS011;6979;52.116;5.286;2023-04-25T03:38:24;3.80;;;2.70;;
13816;SDS011;6979;52.116;5.286;2023-04-25T03:40:51;8.87;;;3.97;;
13816;SDS011;6979;52.116;5.286;2023-04-25T03:43:38;5.20;;;3.43;;
13816;SDS011;6979;52.116;5.286;2023-04-25T03:46:09;6.00;;;2.63;;
13816;SDS011;6979;52.116;5.286;2023-04-25T03:48:37;6.03;;;3.10;;
13816;SDS011;6979;52.116;5.286;2023-04-25T03:51:06;5.90;;;3.23;;
13816;SDS011;6979;52.116;5.286;2023-04-25T03:53:37;5.43;;;3.03;;
13816;SDS011;6979;52.116;5.286;2023-04-25T03:56:27;3.93;;;3.00;;
13816;SDS011;6979;52.116;5.286;2023-04-25T03:59:00;6.17;;;2.37;;
13816;SDS011;6979;52.116;5.286;2023-04-25T04:01:29;7.73;;;2.60;;
13816;SDS011;6979;52.116;5.286;2023-04-25T04:03:56;4.87;;;2.50;;
13816;SDS011;6979;52.116;5.286;2023-04-25T04:06:26;3.70;;;2.00;;
13816;SDS011;6979;52.116;5.286;2023-04-25T04:09:01;5.87;;;2.17;;
13816;SDS011;6979;52.116;5.286;2023-04-25T04:11:30;5.97;;;2.27;;
13816;SDS011;6979;52.116;5.286;2023-04-25T04:13:57;6.57;;;2.27;;
13816;SDS011;6979;52.116;5.286;2023-04-25T04:16:24;7.40;;;2.70;;
13816;SDS011;6979;52.116;5.286;2023-04-25T04:18:51;4.80;;;2.00;;
13816;SDS011;6979;52.116;5.286;2023-04-25T04:21:18;6.43;;;2.60;;
13816;SDS011;6979;52.116;5.286;2023-04-25T04:23:46;4.50;;;2.60;;
13816;SDS011;6979;52.116;5.286;2023-04-25T04:26:13;3.10;;;2.10;;
13816;SDS011;6979;52.116;5.286;2023-04-25T04:28:50;6.07;;;2.40;;
13816;SDS011;6979;52.116;5.286;2023-04-25T04:31:29;4.47;;;1.97;;
13816;SDS011;6979;52.116;5.286;2023-04-25T04:33:58;3.83;;;2.50;;
13816;SDS011;6979;52.116;5.286;2023-04-25T04:36:26;4.73;;;2.27;;
13816;SDS011;6979;52.116;5.286;2023-04-25T04:38:55;4.67;;;2.30;;
13816;SDS011;6979;52.116;5.286;2023-04-25T04:41:34;2.33;;;2.10;;
13816;SDS011;6979;52.116;5.286;2023-04-25T04:44:09;3.60;;;2.03;;
13816;SDS011;6979;52.116;5.286;2023-04-25T04:46:43;3.50;;;2.53;;
13816;SDS011;6979;52.116;5.286;2023-04-25T04:49:30;3.60;;;2.37;;
13816;SDS011;6979;52.116;5.286;2023-04-25T04:52:16;4.87;;;2.60;;
13816;SDS011;6979;52.116;5.286;2023-04-25T04:55:01;4.37;;;2.30;;
13816;SDS011;6979;52.116;5.286;2023-04-25T04:57:50;2.87;;;2.57;;
13816;SDS011;6979;52.116;5.286;2023-04-25T05:00:28;6.00;;;2.17;;
13816;SDS011;6979;52.116;5.286;2023-04-25T05:03:13;4.33;;;2.10;;
13816;SDS011;6979;52.116;5.286;2023-04-25T05:06:04;2.80;;;1.97;;
13816;SDS011;6979;52.116;5.286;2023-04-25T05:08:58;3.70;;;2.23;;
13816;SDS011;6979;52.116;5.286;2023-04-25T05:11:49;3.20;;;2.20;;
13816;SDS011;6979;52.116;5.286;2023-04-25T05:14:49;4.80;;;2.20;;
13816;SDS011;6979;52.116;5.286;2023-04-25T05:17:49;5.80;;;2.30;;
13816;SDS011;6979;52.116;5.286;2023-04-25T05:20:35;3.57;;;1.97;;
13816;SDS011;6979;52.116;5.286;2023-04-25T05:23:34;3.20;;;1.97;;
13816;SDS011;6979;52.116;5.286;2023-04-25T05:26:24;2.43;;;1.73;;
13816;SDS011;6979;52.116;5.286;2023-04-25T05:29:03;3.27;;;1.83;;
13816;SDS011;6979;52.116;5.286;2023-04-25T05:31:38;4.83;;;1.90;;
13816;SDS011;6979;52.116;5.286;2023-04-25T05:34:23;2.70;;;1.87;;
13816;SDS011;6979;52.116;5.286;2023-04-25T05:36:56;4.80;;;2.10;;
13816;SDS011;6979;52.116;5.286;2023-04-25T05:39:24;9.40;;;2.23;;
13816;SDS011;6979;52.116;5.286;2023-04-25T05:42:11;3.37;;;1.67;;
13816;SDS011;6979;52.116;5.286;2023-04-25T05:45:01;4.47;;;1.87;;
13816;SDS011;6979;52.116;5.286;2023-04-25T05:47:49;2.30;;;1.30;;
13816;SDS011;6979;52.116;5.286;2023-04-25T05:50:21;3.27;;;2.03;;
13816;SDS011;6979;52.116;5.286;2023-04-25T05:52:57;3.33;;;1.50;;
13816;SDS011;6979;52.116;5.286;2023-04-25T05:55:53;2.23;;;1.37;;
13816;SDS011;6979;52.116;5.286;2023-04-25T05:58:23;4.90;;;1.70;;
13816;SDS011;6979;52.116;5.286;2023-04-25T06:00:52;3.07;;;1.60;;
13816;SDS011;6979;52.116;5.286;2023-04-25T06:03:20;4.73;;;1.80;;
13816;SDS011;6979;52.116;5.286;2023-04-25T06:05:48;2.77;;;1.40;;
13816;SDS011;6979;52.116;5.286;2023-04-25T06:08:15;4.97;;;1.60;;
13816;SDS011;6979;52.116;5.286;2023-04-25T06:10:42;3.40;;;1.80;;
13816;SDS011;6979;52.116;5.286;2023-04-25T06:13:09;7.07;;;1.70;;
13816;SDS011;6979;52.116;5.286;2023-04-25T06:15:36;5.43;;;1.77;;
13816;SDS011;6979;52.116;5.286;2023-04-25T06:18:04;3.63;;;1.53;;
13816;SDS011;6979;52.116;5.286;2023-04-25T06:20:33;5.57;;;2.23;;
13816;SDS011;6979;52.116;5.286;2023-04-25T06:23:00;3.63;;;1.57;;
13816;SDS011;6979;52.116;5.286;2023-04-25T06:25:39;5.57;;;1.77;;
13816;SDS011;6979;52.116;5.286;2023-04-25T06:28:08;3.87;;;1.47;;
13816;SDS011;6979;52.116;5.286;2023-04-25T06:30:35;5.93;;;1.87;;
13816;SDS011;6979;52.116;5.286;2023-04-25T06:33:08;3.50;;;1.70;;
13816;SDS011;6979;52.116;5.286;2023-04-25T06:35:36;3.53;;;1.83;;
13816;SDS011;6979;52.116;5.286;2023-04-25T06:38:24;3.27;;;1.50;;
13816;SDS011;6979;52.116;5.286;2023-04-25T06:41:12;3.97;;;1.80;;
13816;SDS011;6979;52.116;5.286;2023-04-25T06:43:40;10.43;;;2.30;;
13816;SDS011;6979;52.116;5.286;2023-04-25T06:46:26;7.70;;;1.90;;
13816;SDS011;6979;52.116;5.286;2023-04-25T06:48:55;2.50;;;1.67;;
13816;SDS011;6979;52.116;5.286;2023-04-25T06:51:22;2.57;;;1.50;;
13816;SDS011;6979;52.116;5.286;2023-04-25T06:53:52;2.40;;;1.67;;
13816;SDS011;6979;52.116;5.286;2023-04-25T06:56:29;3.63;;;1.43;;
13816;SDS011;6979;52.116;5.286;2023-04-25T06:59:04;3.00;;;1.40;;
13816;SDS011;6979;52.116;5.286;2023-04-25T07:01:41;2.83;;;1.30;;
13816;SDS011;6979;52.116;5.286;2023-04-25T07:04:15;2.40;;;1.47;;
13816;SDS011;6979;52.116;5.286;2023-04-25T07:06:49;5.07;;;2.17;;
13816;SDS011;6979;52.116;5.286;2023-04-25T07:09:20;3.97;;;1.50;;
13816;SDS011;6979;52.116;5.286;2023-04-25T07:11:48;2.23;;;1.60;;
13816;SDS011;6979;52.116;5.286;2023-04-25T07:14:15;3.07;;;2.13;;
13816;SDS011;6979;52.116;5.286;2023-04-25T07:16:45;5.93;;;2.10;;
13816;SDS011;6979;52.116;5.286;2023-04-25T07:19:12;4.03;;;1.73;;
13816;SDS011;6979;52.116;5.286;2023-04-25T07:21:40;3.67;;;1.50;;
13816;SDS011;6979;52.116;5.286;2023-04-25T07:24:07;3.03;;;1.63;;
13816;SDS011;6979;52.116;5.286;2023-04-25T07:26:39;5.63;;;1.97;;
13816;SDS011;6979;52.116;5.286;2023-04-25T07:29:24;5.87;;;2.73;;
13816;SDS011;6979;52.116;5.286;2023-04-25T07:31:51;2.03;;;1.70;;
13816;SDS011;6979;52.116;5.286;2023-04-25T07:34:19;5.37;;;1.60;;
13816;SDS011;6979;52.116;5.286;2023-04-25T07:36:48;4.40;;;1.73;;
13816;SDS011;6979;52.116;5.286;2023-04-25T07:39:15;3.87;;;1.57;;
13816;SDS011;6979;52.116;5.286;2023-04-25T07:41:43;3.27;;;1.57;;
13816;SDS011;6979;52.116;5.286;2023-04-25T07:44:15;6.53;;;1.63;;
13816;SDS011;6979;52.116;5.286;2023-04-25T07:46:43;5.70;;;2.00;;
13816;SDS011;6979;52.116;5.286;2023-04-25T07:49:10;2.83;;;1.40;;
13816;SDS011;6979;52.116;5.286;2023-04-25T07:51:42;4.63;;;1.67;;
13816;SDS011;6979;52.116;5.286;2023-04-25T07:54:13;2.40;;;1.53;;
13816;SDS011;6979;52.116;5.286;2023-04-25T07:56:45;5.93;;;1.73;;
13816;SDS011;6979;52.116;5.286;2023-04-25T07:59:13;2.70;;;1.70;;
13816;SDS011;6979;52.116;5.286;2023-04-25T08:01:41;3.77;;;1.43;;
13816;SDS011;6979;52.116;5.286;2023-04-25T08:04:09;5.33;;;2.33;;
13816;SDS011;6979;52.116;5.286;2023-04-25T08:06:57;3.27;;;1.60;;
13816;SDS011;6979;52.116;5.286;2023-04-25T08:09:29;5.67;;;2.07;;
13816;SDS011;6979;52.116;5.286;2023-04-25T08:12:00;3.40;;;1.63;;
13816;SDS011;6979;52.116;5.286;2023-04-25T08:14:31;3.73;;;1.37;;
13816;SDS011;6979;52.116;5.286;2023-04-25T08:17:04;2.37;;;1.60;;
13816;SDS011;6979;52.116;5.286;2023-04-25T08:19:33;3.07;;;1.30;;
13816;SDS011;6979;52.116;5.286;2023-04-25T08:22:01;3.57;;;1.40;;
13816;SDS011;6979;52.116;5.286;2023-04-25T08:24:37;4.43;;;1.70;;
13816;SDS011;6979;52.116;5.286;2023-04-25T08:27:06;2.70;;;1.40;;
13816;SDS011;6979;52.116;5.286;2023-04-25T08:29:34;3.07;;;1.17;;
13816;SDS011;6979;52.116;5.286;2023-04-25T08:32:01;2.87;;;1.20;;
13816;SDS011;6979;52.116;5.286;2023-04-25T08:34:29;4.23;;;1.90;;
13816;SDS011;6979;52.116;5.286;2023-04-25T08:37:02;3.10;;;1.60;;
13816;SDS011;6979;52.116;5.286;2023-04-25T08:39:49;6.33;;;1.53;;
13816;SDS011;6979;52.116;5.286;2023-04-25T08:42:49;3.50;;;1.50;;
13816;SDS011;6979;52.116;5.286;2023-04-25T08:45:17;2.47;;;1.40;;
13816;SDS011;6979;52.116;5.286;2023-04-25T08:47:53;3.30;;;1.23;;
13816;SDS011;6979;52.116;5.286;2023-04-25T08:50:22;2.40;;;1.70;;
13816;SDS011;6979;52.116;5.286;2023-04-25T08:52:53;2.13;;;1.27;;
13816;SDS011;6979;52.116;5.286;2023-04-25T08:55:21;2.97;;;1.47;;
13816;SDS011;6979;52.116;5.286;2023-04-25T08:57:53;2.50;;;1.43;;
13816;SDS011;6979;52.116;5.286;2023-04-25T09:00:22;3.10;;;1.07;;
13816;SDS011;6979;52.116;5.286;2023-04-25T09:02:49;2.80;;;1.30;;
13816;SDS011;6979;52.116;5.286;2023-04-25T09:05:16;3.47;;;1.30;;
13816;SDS011;6979;52.116;5.286;2023-04-25T09:07:44;3.60;;;1.40;;
13816;SDS011;6979;52.116;5.286;2023-04-25T09:10:11;2.07;;;1.30;;
13816;SDS011;6979;52.116;5.286;2023-04-25T09:12:39;3.37;;;1.60;;
13816;SDS011;6979;52.116;5.286;2023-04-25T09:15:08;2.97;;;1.40;;
13816;SDS011;6979;52.116;5.286;2023-04-25T09:17:49;1.57;;;1.03;;
13816;SDS011;6979;52.116;5.286;2023-04-25T09:20:21;2.03;;;1.10;;
13816;SDS011;6979;52.116;5.286;2023-04-25T09:22:49;1.33;;;1.03;;
13816;SDS011;6979;52.116;5.286;2023-04-25T09:25:33;2.93;;;1.23;;
13816;SDS011;6979;52.116;5.286;2023-04-25T09:28:04;1.53;;;1.03;;
13816;SDS011;6979;52.116;5.286;2023-04-25T09:30:32;3.37;;;1.23;;
13816;SDS011;6979;52.116;5.286;2023-04-25T09:33:06;3.50;;;1.40;;
13816;SDS011;6979;52.116;5.286;2023-04-25T09:35:35;2.60;;;1.23;;
13816;SDS011;6979;52.116;5.286;2023-04-25T09:38:08;2.27;;;1.50;;
13816;SDS011;6979;52.116;5.286;2023-04-25T09:40:55;2.83;;;1.20;;
13816;SDS011;6979;52.116;5.286;2023-04-25T09:43:33;2.73;;;1.00;;
13816;SDS011;6979;52.116;5.286;2023-04-25T09:46:00;3.20;;;1.47;;
13816;SDS011;6979;52.116;5.286;2023-04-25T09:48:29;5.70;;;1.60;;
13816;SDS011;6979;52.116;5.286;2023-04-25T09:51:07;2.57;;;1.03;;
13816;SDS011;6979;52.116;5.286;2023-04-25T09:53:36;1.87;;;0.80;;
13816;SDS011;6979;52.116;5.286;2023-04-25T09:56:23;2.70;;;0.93;;
13816;SDS011;6979;52.116;5.286;2023-04-25T09:58:53;2.80;;;1.20;;
13816;SDS011;6979;52.116;5.286;2023-04-25T10:01:21;2.03;;;1.20;;
13816;SDS011;6979;52.116;5.286;2023-04-25T10:04:03;1.63;;;0.90;;
13816;SDS011;6979;52.116;5.286;2023-04-25T10:06:58;1.77;;;0.90;;
13816;SDS011;6979;52.116;5.286;2023-04-25T10:09:26;2.67;;;1.00;;
13816;SDS011;6979;52.116;5.286;2023-04-25T10:11:56;2.67;;;1.53;;
13816;SDS011;6979;52.116;5.286;2023-04-25T10:14:26;2.57;;;1.63;;
13816;SDS011;6979;52.116;5.286;2023-04-25T10:16:53;4.17;;;1.70;;
13816;SDS011;6979;52.116;5.286;2023-04-25T10:19:21;2.33;;;1.30;;
13816;SDS011;6979;52.116;5.286;2023-04-25T10:21:50;2.03;;;1.33;;
13816;SDS011;6979;52.116;5.286;2023-04-25T10:24:18;1.57;;;1.00;;
13816;SDS011;6979;52.116;5.286;2023-04-25T10:26:46;1.53;;;1.43;;
13816;SDS011;6979;52.116;5.286;2023-04-25T10:29:14;3.13;;;1.50;;
13816;SDS011;6979;52.116;5.286;2023-04-25T10:31:49;5.50;;;1.50;;
13816;SDS011;6979;52.116;5.286;2023-04-25T10:34:17;3.37;;;1.10;;
13816;SDS011;6979;52.116;5.286;2023-04-25T10:36:48;1.50;;;1.13;;
13816;SDS011;6979;52.116;5.286;2023-04-25T10:39:21;1.77;;;1.47;;
13816;SDS011;6979;52.116;5.286;2023-04-25T10:41:52;2.03;;;1.27;;
13816;SDS011;6979;52.116;5.286;2023-04-25T10:44:21;2.27;;;1.03;;
13816;SDS011;6979;52.116;5.286;2023-04-25T10:46:49;3.43;;;1.43;;
13816;SDS011;6979;52.116;5.286;2023-04-25T10:49:28;1.67;;;1.00;;
13816;SDS011;6979;52.116;5.286;2023-04-25T10:54:46;1.93;;;1.20;;
13816;SDS011;6979;52.116;5.286;2023-04-25T10:57:26;2.93;;;1.37;;
13816;SDS011;6979;52.116;5.286;2023-04-25T10:59:57;1.60;;;0.73;;
13816;SDS011;6979;52.116;5.286;2023-04-25T11:02:27;2.00;;;1.10;;
13816;SDS011;6979;52.116;5.286;2023-04-25T11:04:55;1.67;;;1.23;;
13816;SDS011;6979;52.116;5.286;2023-04-25T11:07:23;2.03;;;1.10;;
13816;SDS011;6979;52.116;5.286;2023-04-25T11:10:00;2.90;;;1.80;;
13816;SDS011;6979;52.116;5.286;2023-04-25T11:12:29;3.23;;;1.20;;
13816;SDS011;6979;52.116;5.286;2023-04-25T11:14:59;2.37;;;1.23;;
13816;SDS011;6979;52.116;5.286;2023-04-25T11:17:29;2.57;;;1.33;;
13816;SDS011;6979;52.116;5.286;2023-04-25T11:19:56;2.03;;;1.50;;
13816;SDS011;6979;52.116;5.286;2023-04-25T11:22:23;1.30;;;1.00;;
13816;SDS011;6979;52.116;5.286;2023-04-25T11:24:53;2.30;;;1.20;;
13816;SDS011;6979;52.116;5.286;2023-04-25T11:27:20;2.20;;;1.10;;
13816;SDS011;6979;52.116;5.286;2023-04-25T11:29:49;1.20;;;0.93;;
13816;SDS011;6979;52.116;5.286;2023-04-25T11:32:17;4.03;;;1.03;;
13816;SDS011;6979;52.116;5.286;2023-04-25T11:34:45;1.77;;;0.80;;
13816;SDS011;6979;52.116;5.286;2023-04-25T11:37:13;2.27;;;1.13;;
13816;SDS011;6979;52.116;5.286;2023-04-25T11:39:43;1.63;;;1.00;;
13816;SDS011;6979;52.116;5.286;2023-04-25T11:42:12;1.00;;;0.90;;
13816;SDS011;6979;52.116;5.286;2023-04-25T11:44:39;1.63;;;1.03;;
13816;SDS011;6979;52.116;5.286;2023-04-25T11:47:09;2.97;;;1.20;;
13816;SDS011;6979;52.116;5.286;2023-04-25T11:49:36;1.83;;;0.90;;
13816;SDS011;6979;52.116;5.286;2023-04-25T11:52:05;3.13;;;1.17;;
13816;SDS011;6979;52.116;5.286;2023-04-25T11:54:35;1.43;;;1.17;;
13816;SDS011;6979;52.116;5.286;2023-04-25T11:57:02;4.10;;;1.67;;
13816;SDS011;6979;52.116;5.286;2023-04-25T11:59:34;1.53;;;1.03;;
13816;SDS011;6979;52.116;5.286;2023-04-25T12:02:01;2.53;;;1.17;;
13816;SDS011;6979;52.116;5.286;2023-04-25T12:04:29;1.80;;;1.10;;
13816;SDS011;6979;52.116;5.286;2023-04-25T12:06:57;2.83;;;1.07;;
13816;SDS011;6979;52.116;5.286;2023-04-25T12:09:31;1.40;;;0.97;;
13816;SDS011;6979;52.116;5.286;2023-04-25T12:12:00;3.03;;;1.53;;
13816;SDS011;6979;52.116;5.286;2023-04-25T12:14:29;1.27;;;0.90;;
13816;SDS011;6979;52.116;5.286;2023-04-25T12:16:58;1.50;;;0.90;;
13816;SDS011;6979;52.116;5.286;2023-04-25T12:19:31;1.77;;;0.73;;
13816;SDS011;6979;52.116;5.286;2023-04-25T12:21:59;1.43;;;1.30;;
13816;SDS011;6979;52.116;5.286;2023-04-25T12:24:29;2.43;;;1.23;;
13816;SDS011;6979;52.116;5.286;2023-04-25T12:26:59;1.97;;;1.00;;
13816;SDS011;6979;52.116;5.286;2023-04-25T12:29:28;1.67;;;1.00;;
13816;SDS011;6979;52.116;5.286;2023-04-25T12:31:56;1.53;;;1.30;;
13816;SDS011;6979;52.116;5.286;2023-04-25T12:34:23;1.43;;;1.10;;
13816;SDS011;6979;52.116;5.286;2023-04-25T12:36:51;2.20;;;1.27;;
13816;SDS011;6979;52.116;5.286;2023-04-25T12:39:19;3.03;;;1.37;;
13816;SDS011;6979;52.116;5.286;2023-04-25T12:41:49;2.53;;;1.20;;
13816;SDS011;6979;52.116;5.286;2023-04-25T12:44:17;2.23;;;1.40;;
13816;SDS011;6979;52.116;5.286;2023-04-25T12:46:44;1.77;;;1.57;;
13816;SDS011;6979;52.116;5.286;2023-04-25T12:49:10;3.63;;;1.43;;
13816;SDS011;6979;52.116;5.286;2023-04-25T12:51:37;3.17;;;1.60;;
13816;SDS011;6979;52.116;5.286;2023-04-25T12:54:05;1.20;;;0.90;;
13816;SDS011;6979;52.116;5.286;2023-04-25T12:56:32;1.87;;;1.07;;
13816;SDS011;6979;52.116;5.286;2023-04-25T12:59:00;2.17;;;1.40;;
13816;SDS011;6979;52.116;5.286;2023-04-25T13:01:28;1.20;;;1.00;;
13816;SDS011;6979;52.116;5.286;2023-04-25T13:03:55;2.10;;;1.20;;
13816;SDS011;6979;52.116;5.286;2023-04-25T13:06:22;3.27;;;1.27;;
13816;SDS011;6979;52.116;5.286;2023-04-25T13:08:52;1.90;;;1.30;;
13816;SDS011;6979;52.116;5.286;2023-04-25T13:11:19;1.63;;;1.33;;
13816;SDS011;6979;52.116;5.286;2023-04-25T13:13:46;2.43;;;1.13;;
13816;SDS011;6979;52.116;5.286;2023-04-25T13:16:14;1.97;;;1.03;;
13816;SDS011;6979;52.116;5.286;2023-04-25T13:18:41;1.23;;;1.10;;
13816;SDS011;6979;52.116;5.286;2023-04-25T13:21:09;1.87;;;1.40;;
13816;SDS011;6979;52.116;5.286;2023-04-25T13:23:36;2.53;;;1.20;;
13816;SDS011;6979;52.116;5.286;2023-04-25T13:26:03;1.73;;;1.43;;
13816;SDS011;6979;52.116;5.286;2023-04-25T13:28:30;1.53;;;1.00;;
13816;SDS011;6979;52.116;5.286;2023-04-25T13:30:57;1.90;;;1.20;;
13816;SDS011;6979;52.116;5.286;2023-04-25T13:33:26;1.47;;;0.90;;
13816;SDS011;6979;52.116;5.286;2023-04-25T13:35:52;1.37;;;0.90;;
13816;SDS011;6979;52.116;5.286;2023-04-25T13:38:21;2.13;;;1.10;;
13816;SDS011;6979;52.116;5.286;2023-04-25T13:40:49;1.40;;;0.73;;
13816;SDS011;6979;52.116;5.286;2023-04-25T13:43:17;3.43;;;1.00;;
13816;SDS011;6979;52.116;5.286;2023-04-25T13:45:45;2.30;;;1.00;;
13816;SDS011;6979;52.116;5.286;2023-04-25T13:48:12;2.07;;;1.20;;
13816;SDS011;6979;52.116;5.286;2023-04-25T13:50:43;2.97;;;1.70;;
13816;SDS011;6979;52.116;5.286;2023-04-25T13:53:13;2.60;;;1.10;;
13816;SDS011;6979;52.116;5.286;2023-04-25T13:55:40;1.60;;;1.50;;
13816;SDS011;6979;52.116;5.286;2023-04-25T13:58:07;3.30;;;1.30;;
13816;SDS011;6979;52.116;5.286;2023-04-25T14:00:35;4.00;;;1.47;;
13816;SDS011;6979;52.116;5.286;2023-04-25T14:03:03;3.00;;;1.73;;
13816;SDS011;6979;52.116;5.286;2023-04-25T14:05:32;1.80;;;1.27;;
13816;SDS011;6979;52.116;5.286;2023-04-25T14:08:05;2.10;;;1.17;;
13816;SDS011;6979;52.116;5.286;2023-04-25T14:10:32;2.47;;;1.20;;
13816;SDS011;6979;52.116;5.286;2023-04-25T14:12:59;2.13;;;1.20;;
13816;SDS011;6979;52.116;5.286;2023-04-25T14:15:28;2.83;;;1.60;;
13816;SDS011;6979;52.116;5.286;2023-04-25T14:17:55;3.13;;;1.33;;
13816;SDS011;6979;52.116;5.286;2023-04-25T14:20:22;1.83;;;1.60;;
13816;SDS011;6979;52.116;5.286;2023-04-25T14:22:50;1.33;;;1.23;;
13816;SDS011;6979;52.116;5.286;2023-04-25T14:25:18;3.67;;;1.70;;
13816;SDS011;6979;52.116;5.286;2023-04-25T14:27:48;2.57;;;1.23;;
13816;SDS011;6979;52.116;5.286;2023-04-25T14:30:15;2.20;;;1.33;;
13816;SDS011;6979;52.116;5.286;2023-04-25T14:32:43;2.23;;;1.13;;
13816;SDS011;6979;52.116;5.286;2023-04-25T14:35:10;2.30;;;1.20;;
13816;SDS011;6979;52.116;5.286;2023-04-25T14:37:37;2.10;;;1.30;;
13816;SDS011;6979;52.116;5.286;2023-04-25T14:40:07;2.77;;;1.43;;
13816;SDS011;6979;52.116;5.286;2023-04-25T14:42:37;4.17;;;1.50;;
13816;SDS011;6979;52.116;5.286;2023-04-25T14:45:04;2.93;;;1.43;;
13816;SDS011;6979;52.116;5.286;2023-04-25T14:47:32;4.17;;;1.33;;
13816;SDS011;6979;52.116;5.286;2023-04-25T14:49:59;3.40;;;1.60;;
13816;SDS011;6979;52.116;5.286;2023-04-25T14:52:26;2.47;;;1.10;;
13816;SDS011;6979;52.116;5.286;2023-04-25T14:54:53;2.20;;;1.40;;
13816;SDS011;6979;52.116;5.286;2023-04-25T14:57:20;1.37;;;1.10;;
13816;SDS011;6979;52.116;5.286;2023-04-25T14:59:48;1.70;;;1.30;;
13816;SDS011;6979;52.116;5.286;2023-04-25T15:02:15;1.70;;;1.10;;
13816;SDS011;6979;52.116;5.286;2023-04-25T15:04:42;1.73;;;1.20;;
13816;SDS011;6979;52.116;5.286;2023-04-25T15:07:09;1.20;;;0.90;;
13816;SDS011;6979;52.116;5.286;2023-04-25T15:09:36;2.00;;;1.40;;
13816;SDS011;6979;52.116;5.286;2023-04-25T15:12:03;2.90;;;1.27;;
13816;SDS011;6979;52.116;5.286;2023-04-25T15:14:30;2.10;;;1.30;;
13816;SDS011;6979;52.116;5.286;2023-04-25T15:17:00;2.40;;;1.20;;
13816;SDS011;6979;52.116;5.286;2023-04-25T15:19:28;1.47;;;1.13;;
13816;SDS011;6979;52.116;5.286;2023-04-25T15:21:59;1.60;;;0.93;;
13816;SDS011;6979;52.116;5.286;2023-04-25T15:24:26;2.03;;;1.10;;